Homeland, California
Current Conditions -  °F | °C
As of 8:35 AM on Saturday 25 Oct 2014 (Local Time) from KF70 Reporting Station
Broken Clouds Broken Clouds  
Wind Chill: 64°   Ceiling: 8500
Heat Index: 64°   Visibility: 10mi
Dew Point: 39°   Wind: 0mph
Humidity: 40%   Direction: NA
Pressure: 30.07"   Gusts: NA
Location:  33.74°N, 117.11°W
Report Text: KF70 251535Z AUTO 00000KT 10SM BKN085 18/04 A3007 RMK AO1
Loading
Personal Weather Stations






























Interactive Weather Map
Tropical Storm Tracking
New forecast layout! Learn more

10-Day Weather Forecast

Advertisements
Track Severe Weather on mobile